createdAt,value
2019-04-09T00:01:30.569Z,94683.52
2019-04-09T00:03:58.460Z,94687.02
2019-04-09T00:06:26.086Z,94689.44
2019-04-09T00:08:54.266Z,94686.63
2019-04-09T00:11:22.131Z,94688.15
2019-04-09T00:13:49.957Z,94686.29
2019-04-09T00:16:17.234Z,94683.46
2019-04-09T00:18:45.586Z,94686.77
2019-04-09T00:21:13.194Z,94686.13
2019-04-09T00:23:40.487Z,94686.34
2019-04-09T00:26:08.047Z,94678.98
2019-04-09T00:28:36.361Z,94682.42
2019-04-09T00:31:04.485Z,94676.43
2019-04-09T00:33:32.480Z,94674.15
2019-04-09T00:35:59.898Z,94671.33
2019-04-09T00:38:27.201Z,94664.53
2019-04-09T00:40:54.948Z,94662.27
2019-04-09T00:43:22.989Z,94662.59
2019-04-09T00:45:51.032Z,94663.36
2019-04-09T00:48:18.446Z,94665.16
2019-04-09T00:50:45.824Z,94662.77
2019-04-09T00:53:13.645Z,94657.93
2019-04-09T00:55:41.634Z,94662.19
2019-04-09T00:58:09.912Z,94666.93
2019-04-09T01:01:03.628Z,94666.11
2019-04-09T01:03:32.375Z,94671.09
2019-04-09T01:06:00.523Z,94659.81
2019-04-09T01:08:28.042Z,94662.06
2019-04-09T01:10:55.260Z,94665.41
2019-04-09T01:13:22.577Z,94668.03
2019-04-09T01:15:49.809Z,94668.33
2019-04-09T01:18:17.028Z,94663.98
2019-04-09T01:20:44.278Z,94667.89
2019-04-09T01:23:11.523Z,94671.23
2019-04-09T01:25:46.845Z,94668.38
2019-04-09T01:28:26.639Z,94664.47
2019-04-09T01:30:59.594Z,94673.83
2019-04-09T01:33:49.431Z,94662.55
2019-04-09T01:36:39.557Z,94662.73
2019-04-09T01:39:44.823Z,94664.20
2019-04-09T01:42:29.087Z,94660.28
2019-04-09T01:45:16.970Z,94665.77
2019-04-09T01:47:55.986Z,94663.59
2019-04-09T01:50:39.601Z,94668.38
2019-04-09T01:53:26.606Z,94661.11
2019-04-09T01:56:07.153Z,94660.00
2019-04-09T01:58:54.225Z,94658.27
2019-04-09T02:01:38.257Z,94655.58
2019-04-09T02:04:34.701Z,94660.06
2019-04-09T02:07:22.133Z,94659.02
2019-04-09T02:10:18.575Z,94660.34
2019-04-09T02:12:53.376Z,94662.38
2019-04-09T02:15:40.395Z,94660.45
2019-04-09T02:18:25.645Z,94664.41
2019-04-09T02:21:20.316Z,94658.76
2019-04-09T02:23:53.654Z,94659.39
2019-04-09T02:26:59.556Z,94657.72
2019-04-09T02:29:45.298Z,94656.20
2019-04-09T02:32:22.405Z,94661.62
2019-04-09T02:35:12.927Z,94662.40
2019-04-09T02:37:59.425Z,94667.98
2019-04-09T02:40:58.748Z,94666.69
2019-04-09T02:43:44.849Z,94667.84
2019-04-09T02:46:22.347Z,94662.81
2019-04-09T02:49:04.280Z,94659.70
2019-04-09T02:51:50.883Z,94664.81
2019-04-09T02:54:40.867Z,94664.27
2019-04-09T02:57:47.162Z,94661.04
2019-04-09T03:00:43.727Z,94661.70
2019-04-09T03:03:27.654Z,94658.69
2019-04-09T03:06:26.365Z,94657.10
2019-04-09T03:09:13.939Z,94656.07
2019-04-09T03:12:00.697Z,94652.02
2019-04-09T03:14:40.454Z,94653.69
2019-04-09T03:17:26.019Z,94653.45
2019-04-09T03:20:12.824Z,94652.28
2019-04-09T03:22:58.468Z,94645.95
2019-04-09T03:25:37.463Z,94649.76
2019-04-09T03:28:24.559Z,94641.83
2019-04-09T03:31:11.685Z,94641.35
2019-04-09T03:33:56.841Z,94637.94
2019-04-09T03:36:42.299Z,94641.36
2019-04-09T03:39:25.480Z,94643.22
2019-04-09T03:42:24.467Z,94642.87
2019-04-09T03:45:00.799Z,94647.48
2019-04-09T03:47:59.367Z,94651.19
2019-04-09T03:50:58.669Z,94650.30
2019-04-09T03:53:43.907Z,94655.45
2019-04-09T03:56:30.193Z,94656.49
2019-04-09T03:59:22.099Z,94660.53
2019-04-09T04:02:03.846Z,94650.37
2019-04-09T04:04:49.030Z,94657.45
2019-04-09T04:07:42.842Z,94652.36
2019-04-09T04:10:34.199Z,94665.30
2019-04-09T04:13:20.879Z,94669.12
2019-04-09T04:16:08.481Z,94668.78
2019-04-09T04:18:56.725Z,94667.72
2019-04-09T04:21:52.536Z,94673.42
2019-04-09T04:24:34.397Z,94671.13
2019-04-09T04:27:21.271Z,94669.43
2019-04-09T04:30:02.597Z,94668.62
2019-04-09T04:32:48.121Z,94667.36
2019-04-09T04:35:44.788Z,94667.64
2019-04-09T04:38:27.061Z,94666.98
2019-04-09T04:41:22.767Z,94659.53
2019-04-09T04:44:18.714Z,94669.15
2019-04-09T04:46:57.046Z,94662.60
2019-04-09T04:49:44.015Z,94672.39
2019-04-09T04:52:42.819Z,94675.88
2019-04-09T04:55:53.108Z,94669.26
2019-04-09T04:58:41.083Z,94668.17
2019-04-09T05:01:26.235Z,94666.90
2019-04-09T05:04:04.880Z,94668.42
2019-04-09T05:06:49.622Z,94670.30
2019-04-09T05:09:33.458Z,94668.73
2019-04-09T05:12:19.242Z,94670.16
2019-04-09T05:15:21.500Z,94667.86
2019-04-09T05:18:02.794Z,94669.81
2019-04-09T05:20:53.454Z,94671.91
2019-04-09T05:23:45.947Z,94670.52
2019-04-09T05:26:24.285Z,94671.28
2019-04-09T05:29:12.283Z,94664.88
2019-04-09T05:31:59.191Z,94665.98
2019-04-09T05:34:44.635Z,94670.86
2019-04-09T05:37:31.403Z,94667.61
2019-04-09T05:40:17.402Z,94673.50
2019-04-09T05:42:58.219Z,94667.34
2019-04-09T05:45:34.503Z,94671.00
2019-04-09T05:48:17.111Z,94676.85
2019-04-09T05:50:54.210Z,94673.61
2019-04-09T05:53:39.619Z,94678.78
2019-04-09T05:56:20.124Z,94673.20
2019-04-09T05:59:04.730Z,94678.48
2019-04-09T06:01:36.362Z,94679.86
2019-04-09T06:04:26.003Z,94672.52
2019-04-09T06:07:11.256Z,94669.35
2019-04-09T06:09:39.432Z,94670.80
2019-04-09T06:12:06.852Z,94667.22
2019-04-09T06:14:34.453Z,94670.64
2019-04-09T06:17:01.859Z,94667.28
2019-04-09T06:19:30.224Z,94661.02
2019-04-09T06:21:57.660Z,94665.48
2019-04-09T06:24:25.055Z,94663.98
2019-04-09T06:26:52.868Z,94659.09
2019-04-09T06:29:23.306Z,94658.25
2019-04-09T06:31:50.886Z,94650.50
2019-04-09T06:34:46.949Z,94644.28
2019-04-09T06:37:54.106Z,94651.25
2019-04-09T06:40:36.953Z,94644.53
2019-04-09T06:43:33.746Z,94647.45
2019-04-09T06:46:27.514Z,94638.64
2019-04-09T06:49:26.161Z,94637.55
2019-04-09T06:52:08.278Z,94641.60
2019-04-09T06:55:14.671Z,94641.61
2019-04-09T06:58:14.268Z,94641.13
2019-04-09T07:00:54.379Z,94640.91
2019-04-09T07:03:51.020Z,94631.92
2019-04-09T07:06:57.579Z,94632.66
2019-04-09T07:09:59.979Z,94627.72
2019-04-09T07:12:51.950Z,94631.66
2019-04-09T07:15:39.693Z,94627.97
2019-04-09T07:18:25.105Z,94629.48
2019-04-09T07:21:09.543Z,94626.08
2019-04-09T07:23:56.456Z,94617.88
2019-04-09T07:26:27.981Z,94616.50
2019-04-09T07:29:45.567Z,94623.06
2019-04-09T07:32:34.009Z,94607.01
2019-04-09T07:35:15.507Z,94611.91
2019-04-09T07:37:54.440Z,94609.29
2019-04-09T07:40:42.173Z,94608.52
2019-04-09T07:43:27.933Z,94601.06
2019-04-09T07:46:15.799Z,94597.34
2019-04-09T07:49:02.360Z,94599.15
2019-04-09T07:51:49.794Z,94600.31
2019-04-09T07:54:31.539Z,94597.92
2019-04-09T07:57:21.895Z,94598.17
2019-04-09T08:00:20.522Z,94592.80
2019-04-09T08:03:03.392Z,94589.36
2019-04-09T08:05:58.444Z,94588.05
2019-04-09T08:08:40.223Z,94592.92
2019-04-09T08:11:25.439Z,94587.88
2019-04-09T08:14:26.540Z,94583.47
2019-04-09T08:17:04.248Z,94582.27
2019-04-09T08:20:03.344Z,94575.93
2019-04-09T08:22:36.944Z,94578.33
2019-04-09T08:25:14.740Z,94575.73
2019-04-09T08:27:51.418Z,94573.51
2019-04-09T08:30:31.250Z,94569.74
2019-04-09T08:33:20.413Z,94571.88
2019-04-09T08:35:54.323Z,94567.05
2019-04-09T08:38:34.959Z,94573.91
2019-04-09T08:41:12.769Z,94572.14
2019-04-09T08:44:03.878Z,94561.88
2019-04-09T08:46:43.261Z,94563.28
2019-04-09T08:49:28.967Z,94563.35
2019-04-09T08:52:19.165Z,94558.03
2019-04-09T08:55:12.027Z,94558.00
2019-04-09T08:57:48.279Z,94546.63
2019-04-09T09:01:08.584Z,94542.25
2019-04-09T09:03:29.542Z,94544.95
2019-04-09T09:06:14.466Z,94544.82
2019-04-09T09:08:59.871Z,94542.58
2019-04-09T09:11:41.734Z,94544.91
2019-04-09T09:14:28.849Z,94543.00
2019-04-09T09:17:11.008Z,94545.49
2019-04-09T09:19:52.539Z,94540.15
2019-04-09T09:22:47.695Z,94543.84
2019-04-09T09:25:49.928Z,94536.28
2019-04-09T09:28:27.142Z,94529.09
2019-04-09T09:31:24.106Z,94532.94
2019-04-09T09:34:01.031Z,94528.89
2019-04-09T09:36:54.228Z,94520.53
2019-04-09T09:39:41.143Z,94528.77
2019-04-09T09:42:19.339Z,94510.95
2019-04-09T09:45:05.675Z,94509.53
2019-04-09T09:47:59.915Z,94511.08
2019-04-09T09:50:45.545Z,94500.13
2019-04-09T09:53:33.676Z,94499.56
2019-04-09T09:56:32.834Z,94492.02
2019-04-09T09:59:21.547Z,94483.97
2019-04-09T10:02:10.240Z,94476.19
2019-04-09T10:05:00.872Z,94475.53
2019-04-09T10:07:53.226Z,94474.22
2019-04-09T10:10:34.049Z,94466.80
2019-04-09T10:13:24.415Z,94468.73
2019-04-09T10:16:11.787Z,94463.72
2019-04-09T10:19:22.087Z,94457.95
2019-04-09T10:22:22.732Z,94455.98
2019-04-09T10:25:26.373Z,94446.02
2019-04-09T10:28:14.056Z,94436.73
2019-04-09T10:31:00.531Z,94437.34
2019-04-09T10:33:46.294Z,94440.81
2019-04-09T10:36:34.283Z,94429.47
2019-04-09T10:39:34.080Z,94431.60
2019-04-09T10:42:13.277Z,94428.66
2019-04-09T10:44:55.074Z,94425.69
2019-04-09T10:47:35.516Z,94422.20
2019-04-09T10:50:24.833Z,94419.39
2019-04-09T10:53:19.227Z,94420.55
2019-04-09T10:56:06.215Z,94421.37
2019-04-09T10:58:57.039Z,94420.23
2019-04-09T11:01:42.832Z,94415.16
2019-04-09T11:04:25.693Z,94413.42
2019-04-09T11:07:10.051Z,94408.08
2019-04-09T11:09:58.946Z,94407.16
2019-04-09T11:12:49.559Z,94404.49
2019-04-09T11:15:36.807Z,94402.80
2019-04-09T11:18:25.572Z,94397.00
2019-04-09T11:21:10.889Z,94383.58
2019-04-09T11:23:59.716Z,94388.08
2019-04-09T11:26:51.673Z,94387.11
2019-04-09T11:29:37.957Z,94383.94
2019-04-09T11:32:26.302Z,94377.41
2019-04-09T11:35:14.278Z,94372.88
2019-04-09T11:38:01.450Z,94380.30
2019-04-09T11:40:35.574Z,94376.94
2019-04-09T11:43:08.988Z,94368.66
2019-04-09T11:45:46.274Z,94369.78
2019-04-09T11:48:45.739Z,94361.48
2019-04-09T11:51:32.051Z,94357.97
2019-04-09T11:54:22.696Z,94355.08
2019-04-09T11:57:12.743Z,94359.61
2019-04-09T11:59:59.723Z,94347.74
2019-04-09T12:02:46.302Z,94340.86
2019-04-09T12:05:32.360Z,94342.00
2019-04-09T12:08:34.953Z,94342.63
2019-04-09T12:11:29.922Z,94335.28
2019-04-09T12:14:17.993Z,94333.88
2019-04-09T12:17:10.185Z,94323.65
2019-04-09T12:20:12.033Z,94326.91
2019-04-09T12:23:01.535Z,94322.29
2019-04-09T12:25:53.600Z,94327.46
2019-04-09T12:29:06.783Z,94317.41
2019-04-09T12:31:42.664Z,94317.38
2019-04-09T12:34:48.651Z,94311.70
2019-04-09T12:37:45.923Z,94310.70
2019-04-09T12:40:31.340Z,94318.55
2019-04-09T12:43:53.823Z,94304.65
2019-04-09T12:46:29.151Z,94314.14
2019-04-09T12:49:21.098Z,94303.34
2019-04-09T12:52:09.209Z,94299.87
2019-04-09T12:55:04.792Z,94301.94
2019-04-09T12:57:54.520Z,94294.78
2019-04-09T13:00:29.058Z,94292.94
2019-04-09T13:03:05.652Z,94296.62
2019-04-09T13:05:55.066Z,94291.63
2019-04-09T13:08:32.334Z,94289.61
2019-04-09T13:11:18.135Z,94281.95
2019-04-09T13:14:04.091Z,94286.11
2019-04-09T13:16:49.776Z,94276.13
2019-04-09T13:19:49.332Z,94277.38
2019-04-09T13:22:36.069Z,94275.43
2019-04-09T13:25:24.965Z,94277.97
2019-04-09T13:28:12.225Z,94272.15
2019-04-09T13:31:05.504Z,94273.70
2019-04-09T13:34:03.537Z,94263.58
2019-04-09T13:36:48.965Z,94265.64
2019-04-09T13:39:35.819Z,94259.53
2019-04-09T13:42:21.488Z,94254.35
2019-04-09T13:45:01.808Z,94254.93
2019-04-09T13:47:50.654Z,94246.66
2019-04-09T13:50:33.459Z,94246.83
2019-04-09T13:53:00.712Z,94247.19
2019-04-09T13:55:28.311Z,94245.63
2019-04-09T13:57:56.292Z,94242.27
2019-04-09T14:00:23.653Z,94232.71
2019-04-09T14:03:17.161Z,94238.46
2019-04-09T14:05:28.740Z,94238.22
2019-04-09T14:07:57.659Z,94238.48
2019-04-09T14:10:25.243Z,94230.06
2019-04-09T14:12:53.750Z,94231.75
2019-04-09T14:15:22.367Z,94231.87
2019-04-09T14:17:49.841Z,94233.20
2019-04-09T14:20:17.865Z,94232.34
2019-04-09T14:22:45.721Z,94225.45
2019-04-09T14:25:13.623Z,94221.70
2019-04-09T14:27:42.231Z,94224.90
2019-04-09T14:30:10.707Z,94217.66
2019-04-09T14:32:38.969Z,94222.48
2019-04-09T14:35:07.647Z,94215.89
2019-04-09T14:37:35.315Z,94221.05
2019-04-09T14:40:03.638Z,94209.41
2019-04-09T14:42:31.053Z,94218.00
2019-04-09T14:44:59.430Z,94207.05
2019-04-09T14:47:28.487Z,94215.81
2019-04-09T14:49:56.231Z,94210.63
2019-04-09T14:52:24.586Z,94212.26
2019-04-09T14:54:52.342Z,94210.94
2019-04-09T14:57:20.750Z,94208.13
2019-04-09T14:59:48.580Z,94210.66
2019-04-09T15:02:16.208Z,94208.87
2019-04-09T15:04:43.885Z,94205.17
2019-04-09T15:07:11.407Z,94207.39
2019-04-09T15:09:39.222Z,94210.17
2019-04-09T15:12:06.823Z,94211.39
2019-04-09T15:14:34.736Z,94210.38
2019-04-09T15:17:02.259Z,94206.06
2019-04-09T15:19:29.812Z,94204.34
2019-04-09T15:22:26.591Z,94203.20
2019-04-09T15:24:55.199Z,94210.30
2019-04-09T15:27:23.757Z,94207.11
2019-04-09T15:29:52.220Z,94205.61
2019-04-09T15:32:22.599Z,94204.48
2019-04-09T15:34:49.458Z,94209.30
2019-04-09T15:37:17.026Z,94208.34
2019-04-09T15:39:44.471Z,94204.87
2019-04-09T15:42:11.854Z,94211.78
2019-04-09T15:44:40.011Z,94208.42
2019-04-09T15:47:08.345Z,94205.94
2019-04-09T15:49:36.558Z,94202.69
2019-04-09T15:52:05.457Z,94211.13
2019-04-09T15:54:34.068Z,94206.67
2019-04-09T15:57:01.600Z,94206.16
2019-04-09T15:59:29.981Z,94207.83
2019-04-09T16:01:58.219Z,94209.84
2019-04-09T16:04:26.151Z,94209.41
2019-04-09T16:06:54.825Z,94210.13
2019-04-09T16:09:25.331Z,94218.98
2019-04-09T16:11:55.830Z,94217.08
2019-04-09T16:14:24.439Z,94215.97
2019-04-09T16:16:52.535Z,94216.58
2019-04-09T16:19:21.352Z,94226.41
2019-04-09T16:21:49.149Z,94228.01
2019-04-09T16:24:17.162Z,94237.54
2019-04-09T16:26:45.397Z,94240.57
2019-04-09T16:29:13.082Z,94236.98
2019-04-09T16:31:40.525Z,94243.17
2019-04-09T16:34:10.652Z,94251.27
2019-04-09T16:36:38.250Z,94252.09
2019-04-09T16:39:08.639Z,94254.45
2019-04-09T16:41:36.280Z,94258.61
2019-04-09T16:44:04.027Z,94258.79
2019-04-09T16:46:31.476Z,94260.96
2019-04-09T16:48:59.049Z,94256.50
2019-04-09T16:51:27.437Z,94263.27
2019-04-09T16:53:55.750Z,94268.08
2019-04-09T16:56:23.401Z,94268.25
2019-04-09T16:58:51.372Z,94269.42
2019-04-09T17:01:19.267Z,94278.33
2019-04-09T17:03:50.021Z,94279.97
2019-04-09T17:06:16.649Z,94283.30
2019-04-09T17:08:45.472Z,94279.84
2019-04-09T17:11:14.234Z,94283.81
2019-04-09T17:13:41.987Z,94285.64
2019-04-09T17:16:09.552Z,94288.12
2019-04-09T17:18:37.771Z,94283.99
2019-04-09T17:21:06.832Z,94290.57
2019-04-09T17:23:34.821Z,94291.23
2019-04-09T17:26:02.940Z,94300.16
2019-04-09T17:28:31.747Z,94294.84
2019-04-09T17:30:59.856Z,94298.64
2019-04-09T17:33:27.453Z,94292.38
2019-04-09T17:35:55.550Z,94296.98
2019-04-09T17:38:23.894Z,94294.69
2019-04-09T17:40:52.340Z,94301.92
2019-04-09T17:43:20.596Z,94305.72
2019-04-09T17:45:48.879Z,94307.52
2019-04-09T17:51:05.382Z,94316.23
2019-04-09T17:53:33.085Z,94328.24
2019-04-09T17:56:00.732Z,94353.47
2019-04-09T17:58:28.882Z,94361.31
2019-04-09T18:00:59.176Z,94381.40
2019-04-09T18:03:26.148Z,94396.84
2019-04-09T18:05:55.042Z,94404.34
2019-04-09T18:08:24.195Z,94411.61
2019-04-09T18:10:53.035Z,94420.76
2019-04-09T18:13:21.368Z,94430.05
2019-04-09T18:15:50.727Z,94435.35
2019-04-09T18:18:18.619Z,94430.26
2019-04-09T18:20:50.666Z,94429.31
2019-04-09T18:23:25.151Z,94443.48
2019-04-09T18:26:26.827Z,94448.42
2019-04-09T18:28:54.715Z,94453.63
2019-04-09T18:31:30.079Z,94454.55
2019-04-09T18:33:52.307Z,94447.19
2019-04-09T18:36:22.753Z,94449.17
2019-04-09T18:38:50.765Z,94446.82
2019-04-09T18:41:19.897Z,94456.53
2019-04-09T18:43:50.354Z,94461.48
2019-04-09T18:46:18.305Z,94455.27
2019-04-09T18:48:49.334Z,94456.05
2019-04-09T18:51:16.604Z,94450.22
2019-04-09T18:53:45.406Z,94455.49
2019-04-09T18:59:01.621Z,94456.72
2019-04-09T19:01:29.826Z,94457.20
2019-04-09T19:04:08.656Z,94451.73
2019-04-09T19:06:29.863Z,94460.04
2019-04-09T19:08:57.888Z,94451.89
2019-04-09T19:11:26.418Z,94459.41
2019-04-09T19:13:54.177Z,94462.41
2019-04-09T19:16:22.270Z,94460.35
2019-04-09T19:18:50.124Z,94453.39
2019-04-09T19:21:18.561Z,94457.31
2019-04-09T19:23:48.570Z,94458.84
2019-04-09T19:26:16.481Z,94460.69
2019-04-09T19:28:46.498Z,94464.59
2019-04-09T19:31:16.213Z,94466.03
2019-04-09T19:33:44.640Z,94465.69
2019-04-09T19:36:13.600Z,94465.66
2019-04-09T19:38:42.668Z,94469.99
2019-04-09T19:41:12.861Z,94469.83
2019-04-09T19:43:42.031Z,94467.16
2019-04-09T19:46:10.270Z,94471.97
2019-04-09T19:48:43.301Z,94475.51
2019-04-09T19:51:11.666Z,94474.69
2019-04-09T19:53:40.159Z,94469.48
2019-04-09T19:56:11.145Z,94469.34
2019-04-09T19:58:46.391Z,94461.95
2019-04-09T20:01:10.090Z,94461.73
2019-04-09T20:03:39.834Z,94463.66
2019-04-09T20:06:07.762Z,94466.63
2019-04-09T20:08:38.927Z,94462.12
2019-04-09T20:11:06.864Z,94458.34
2019-04-09T20:13:35.544Z,94457.31
2019-04-09T20:16:03.323Z,94453.28
2019-04-09T20:18:31.521Z,94454.43
2019-04-09T20:21:01.652Z,94449.45
2019-04-09T20:23:29.448Z,94448.48
2019-04-09T20:26:02.105Z,94444.45
2019-04-09T20:28:29.945Z,94446.43
2019-04-09T20:31:00.788Z,94447.59
2019-04-09T20:33:29.599Z,94441.41
2019-04-09T20:35:57.491Z,94445.59
2019-04-09T20:38:25.091Z,94450.00
2019-04-09T20:40:52.794Z,94440.43
2019-04-09T20:43:20.669Z,94443.59
2019-04-09T20:45:49.138Z,94440.44
2019-04-09T20:48:17.313Z,94444.21
2019-04-09T20:50:46.113Z,94449.89
2019-04-09T20:53:14.022Z,94446.97
2019-04-09T20:55:42.374Z,94450.98
2019-04-09T20:58:10.691Z,94449.67
2019-04-09T21:00:58.602Z,94441.81
2019-04-09T21:04:01.039Z,94445.43
2019-04-09T21:06:28.684Z,94442.33
2019-04-09T21:08:56.218Z,94443.95
2019-04-09T21:11:24.413Z,94445.77
2019-04-09T21:13:51.884Z,94440.56
2019-04-09T21:16:20.327Z,94438.27
2019-04-09T21:18:47.968Z,94444.98
2019-04-09T21:21:15.215Z,94448.37
2019-04-09T21:23:42.569Z,94441.08
2019-04-09T21:26:09.854Z,94442.29
2019-04-09T21:28:37.414Z,94441.82
2019-04-09T21:31:04.916Z,94450.59
2019-04-09T21:33:32.235Z,94440.30
2019-04-09T21:36:07.856Z,94442.09
2019-04-09T21:38:29.694Z,94439.41
2019-04-09T21:40:58.172Z,94443.47
2019-04-09T21:43:25.704Z,94436.02
2019-04-09T21:45:53.082Z,94441.80
2019-04-09T21:48:20.890Z,94441.58
2019-04-09T21:50:48.339Z,94439.77
2019-04-09T21:53:15.737Z,94436.37
2019-04-09T21:55:43.074Z,94437.89
2019-04-09T21:58:10.457Z,94437.42
2019-04-09T22:00:51.976Z,94443.46
2019-04-09T22:03:23.162Z,94444.37
2019-04-09T22:05:52.457Z,94446.77
2019-04-09T22:08:20.113Z,94445.31
2019-04-09T22:10:48.265Z,94439.83
2019-04-09T22:13:16.492Z,94444.04
2019-04-09T22:15:45.118Z,94439.44
2019-04-09T22:18:20.251Z,94444.33
2019-04-09T22:20:41.845Z,94445.89
2019-04-09T22:23:09.146Z,94449.19
2019-04-09T22:25:36.807Z,94445.40
2019-04-09T22:28:04.395Z,94446.59
2019-04-09T22:30:31.759Z,94445.83
2019-04-09T22:33:06.953Z,94447.05
2019-04-09T22:35:29.066Z,94451.26
2019-04-09T22:37:57.497Z,94447.73
2019-04-09T22:40:24.952Z,94452.58
2019-04-09T22:42:52.216Z,94457.81
2019-04-09T22:45:19.481Z,94453.13
2019-04-09T22:47:47.349Z,94453.34
2019-04-09T22:50:15.530Z,94453.67
2019-04-09T22:52:43.773Z,94451.11
2019-04-09T22:55:11.299Z,94451.20
2019-04-09T22:57:38.652Z,94450.89
2019-04-09T23:00:12.491Z,94447.11
2019-04-09T23:02:52.271Z,94449.33
2019-04-09T23:05:31.267Z,94447.40
2019-04-09T23:08:07.196Z,94459.61
2019-04-09T23:11:09.431Z,94439.40
2019-04-09T23:13:36.716Z,94446.98
2019-04-09T23:16:05.120Z,94443.61
2019-04-09T23:18:33.037Z,94441.81
2019-04-09T23:21:01.181Z,94445.81
2019-04-09T23:23:29.108Z,94446.45
2019-04-09T23:25:57.321Z,94446.91
2019-04-09T23:28:25.442Z,94438.03
2019-04-09T23:30:52.959Z,94449.27
2019-04-09T23:33:20.595Z,94444.58
2019-04-09T23:35:48.100Z,94437.01
2019-04-09T23:38:16.671Z,94441.95
2019-04-09T23:40:44.171Z,94441.95
2019-04-09T23:43:11.968Z,94437.27
2019-04-09T23:45:39.507Z,94439.34
2019-04-09T23:48:07.289Z,94439.79
2019-04-09T23:50:35.940Z,94440.84
2019-04-09T23:53:03.442Z,94437.89
2019-04-09T23:55:31.408Z,94435.33
2019-04-09T23:57:58.720Z,94437.55
